sensor_id;sensor_type;location;lat;lon;timestamp;temperature;humidity
3921;DHT22;1975;49.356;6.816;2022-10-16T00:00:17;15.80;99.90
3921;DHT22;1975;49.356;6.816;2022-10-16T00:02:43;15.80;99.90
3921;DHT22;1975;49.356;6.816;2022-10-16T00:05:08;15.80;99.90
3921;DHT22;1975;49.356;6.816;2022-10-16T00:07:34;15.80;99.90
3921;DHT22;1975;49.356;6.816;2022-10-16T00:09:59;15.80;99.90
3921;DHT22;1975;49.356;6.816;2022-10-16T00:12:24;15.80;99.90
3921;DHT22;1975;49.356;6.816;2022-10-16T00:14:50;15.80;99.90
3921;DHT22;1975;49.356;6.816;2022-10-16T00:17:15;15.80;99.90
3921;DHT22;1975;49.356;6.816;2022-10-16T00:19:41;15.80;99.90
3921;DHT22;1975;49.356;6.816;2022-10-16T00:22:06;15.80;99.90
3921;DHT22;1975;49.356;6.816;2022-10-16T00:24:32;15.80;99.90
3921;DHT22;1975;49.356;6.816;2022-10-16T00:26:57;15.80;99.90
3921;DHT22;1975;49.356;6.816;2022-10-16T00:29:23;15.80;99.90
3921;DHT22;1975;49.356;6.816;2022-10-16T00:31:48;15.80;99.90
3921;DHT22;1975;49.356;6.816;2022-10-16T00:34:14;15.70;99.90
3921;DHT22;1975;49.356;6.816;2022-10-16T00:36:39;15.80;99.90
3921;DHT22;1975;49.356;6.816;2022-10-16T00:39:05;15.70;99.90
3921;DHT22;1975;49.356;6.816;2022-10-16T00:41:30;15.70;99.90
3921;DHT22;1975;49.356;6.816;2022-10-16T00:43:57;15.70;99.90
3921;DHT22;1975;49.356;6.816;2022-10-16T00:48:56;15.70;99.90
3921;DHT22;1975;49.356;6.816;2022-10-16T00:51:23;15.70;99.90
3921;DHT22;1975;49.356;6.816;2022-10-16T00:53:50;15.70;99.90
3921;DHT22;1975;49.356;6.816;2022-10-16T00:56:16;15.70;99.90
3921;DHT22;1975;49.356;6.816;2022-10-16T00:58:42;15.70;99.90
3921;DHT22;1975;49.356;6.816;2022-10-16T01:01:07;15.70;99.90
3921;DHT22;1975;49.356;6.816;2022-10-16T01:03:34;15.70;99.90
3921;DHT22;1975;49.356;6.816;2022-10-16T01:06:14;15.70;99.90
3921;DHT22;1975;49.356;6.816;2022-10-16T01:11:29;15.70;99.90
3921;DHT22;1975;49.356;6.816;2022-10-16T01:13:58;15.70;99.90
3921;DHT22;1975;49.356;6.816;2022-10-16T01:16:36;15.70;99.90
3921;DHT22;1975;49.356;6.816;2022-10-16T01:21:43;15.70;99.90
3921;DHT22;1975;49.356;6.816;2022-10-16T01:31:39;15.70;99.90
3921;DHT22;1975;49.356;6.816;2022-10-16T01:34:07;15.70;99.90
3921;DHT22;1975;49.356;6.816;2022-10-16T01:36:37;15.70;99.90
3921;DHT22;1975;49.356;6.816;2022-10-16T01:39:03;15.70;99.90
3921;DHT22;1975;49.356;6.816;2022-10-16T01:41:31;15.70;99.90
3921;DHT22;1975;49.356;6.816;2022-10-16T01:44:02;15.70;99.90
3921;DHT22;1975;49.356;6.816;2022-10-16T01:46:28;15.70;99.90
3921;DHT22;1975;49.356;6.816;2022-10-16T01:48:55;15.70;99.90
3921;DHT22;1975;49.356;6.816;2022-10-16T01:51:21;15.70;99.90
3921;DHT22;1975;49.356;6.816;2022-10-16T01:53:48;15.70;99.90
3921;DHT22;1975;49.356;6.816;2022-10-16T01:56:14;15.70;99.90
3921;DHT22;1975;49.356;6.816;2022-10-16T01:58:51;15.70;99.90
3921;DHT22;1975;49.356;6.816;2022-10-16T02:01:19;15.70;99.90
3921;DHT22;1975;49.356;6.816;2022-10-16T02:03:45;15.70;99.90
3921;DHT22;1975;49.356;6.816;2022-10-16T02:06:11;15.70;99.90
3921;DHT22;1975;49.356;6.816;2022-10-16T02:08:36;15.70;99.90
3921;DHT22;1975;49.356;6.816;2022-10-16T02:11:04;15.70;99.90
3921;DHT22;1975;49.356;6.816;2022-10-16T02:13:33;15.70;99.90
3921;DHT22;1975;49.356;6.816;2022-10-16T02:16:00;15.70;99.90
3921;DHT22;1975;49.356;6.816;2022-10-16T02:18:26;15.70;99.90
3921;DHT22;1975;49.356;6.816;2022-10-16T02:20:55;15.70;99.90
3921;DHT22;1975;49.356;6.816;2022-10-16T02:23:24;15.70;99.90
3921;DHT22;1975;49.356;6.816;2022-10-16T02:25:53;15.70;99.90
3921;DHT22;1975;49.356;6.816;2022-10-16T02:28:21;15.70;99.90
3921;DHT22;1975;49.356;6.816;2022-10-16T02:30:56;15.70;99.90
3921;DHT22;1975;49.356;6.816;2022-10-16T02:33:22;15.70;99.90
3921;DHT22;1975;49.356;6.816;2022-10-16T02:35:48;15.70;99.90
3921;DHT22;1975;49.356;6.816;2022-10-16T02:38:16;15.70;99.90
3921;DHT22;1975;49.356;6.816;2022-10-16T02:40:42;15.70;99.90
3921;DHT22;1975;49.356;6.816;2022-10-16T02:43:08;15.70;99.90
3921;DHT22;1975;49.356;6.816;2022-10-16T02:45:34;15.70;99.90
3921;DHT22;1975;49.356;6.816;2022-10-16T02:47:59;15.70;99.90
3921;DHT22;1975;49.356;6.816;2022-10-16T02:50:25;15.70;99.90
3921;DHT22;1975;49.356;6.816;2022-10-16T02:52:50;15.70;99.90
3921;DHT22;1975;49.356;6.816;2022-10-16T02:55:16;15.60;99.90
3921;DHT22;1975;49.356;6.816;2022-10-16T02:57:41;15.70;99.90
3921;DHT22;1975;49.356;6.816;2022-10-16T03:00:08;15.70;99.90
3921;DHT22;1975;49.356;6.816;2022-10-16T03:02:34;15.70;99.90
3921;DHT22;1975;49.356;6.816;2022-10-16T03:04:59;15.70;99.90
3921;DHT22;1975;49.356;6.816;2022-10-16T03:07:24;15.70;99.90
3921;DHT22;1975;49.356;6.816;2022-10-16T03:09:50;15.60;99.90
3921;DHT22;1975;49.356;6.816;2022-10-16T03:12:15;15.60;99.90
3921;DHT22;1975;49.356;6.816;2022-10-16T03:14:41;15.60;99.90
3921;DHT22;1975;49.356;6.816;2022-10-16T03:17:06;15.70;99.90
3921;DHT22;1975;49.356;6.816;2022-10-16T03:19:32;15.60;99.90
3921;DHT22;1975;49.356;6.816;2022-10-16T03:21:57;15.60;99.90
3921;DHT22;1975;49.356;6.816;2022-10-16T03:24:23;15.60;99.90
3921;DHT22;1975;49.356;6.816;2022-10-16T03:26:48;15.60;99.90
3921;DHT22;1975;49.356;6.816;2022-10-16T03:29:14;15.60;99.90
3921;DHT22;1975;49.356;6.816;2022-10-16T03:31:39;15.60;99.90
3921;DHT22;1975;49.356;6.816;2022-10-16T03:34:05;15.60;99.90
3921;DHT22;1975;49.356;6.816;2022-10-16T03:36:30;15.60;99.90
3921;DHT22;1975;49.356;6.816;2022-10-16T03:38:56;15.60;99.90
3921;DHT22;1975;49.356;6.816;2022-10-16T03:41:21;15.60;99.90
3921;DHT22;1975;49.356;6.816;2022-10-16T03:43:47;15.60;99.90
3921;DHT22;1975;49.356;6.816;2022-10-16T03:46:12;15.60;99.90
3921;DHT22;1975;49.356;6.816;2022-10-16T03:48:38;15.60;99.90
3921;DHT22;1975;49.356;6.816;2022-10-16T03:51:05;15.60;99.90
3921;DHT22;1975;49.356;6.816;2022-10-16T03:53:30;15.60;99.90
3921;DHT22;1975;49.356;6.816;2022-10-16T03:55:56;15.60;99.90
3921;DHT22;1975;49.356;6.816;2022-10-16T03:58:21;15.60;99.90
3921;DHT22;1975;49.356;6.816;2022-10-16T04:00:47;15.60;99.90
3921;DHT22;1975;49.356;6.816;2022-10-16T04:03:13;15.60;99.90
3921;DHT22;1975;49.356;6.816;2022-10-16T04:05:39;15.60;99.90
3921;DHT22;1975;49.356;6.816;2022-10-16T04:08:05;15.60;99.90
3921;DHT22;1975;49.356;6.816;2022-10-16T04:10:30;15.60;99.90
3921;DHT22;1975;49.356;6.816;2022-10-16T04:12:56;15.60;99.90
3921;DHT22;1975;49.356;6.816;2022-10-16T04:15:22;15.60;99.90
3921;DHT22;1975;49.356;6.816;2022-10-16T04:17:47;15.60;99.90
3921;DHT22;1975;49.356;6.816;2022-10-16T04:20:13;15.60;99.90
3921;DHT22;1975;49.356;6.816;2022-10-16T04:22:38;15.60;99.90
3921;DHT22;1975;49.356;6.816;2022-10-16T04:25:04;15.60;99.90
3921;DHT22;1975;49.356;6.816;2022-10-16T04:27:30;15.60;99.90
3921;DHT22;1975;49.356;6.816;2022-10-16T04:29:59;15.60;99.90
3921;DHT22;1975;49.356;6.816;2022-10-16T04:32:25;15.60;99.90
3921;DHT22;1975;49.356;6.816;2022-10-16T04:34:50;15.60;99.90
3921;DHT22;1975;49.356;6.816;2022-10-16T04:37:16;15.60;99.90
3921;DHT22;1975;49.356;6.816;2022-10-16T04:39:41;15.60;99.90
3921;DHT22;1975;49.356;6.816;2022-10-16T04:42:07;15.60;99.90
3921;DHT22;1975;49.356;6.816;2022-10-16T04:44:32;15.60;99.90
3921;DHT22;1975;49.356;6.816;2022-10-16T04:46:58;15.60;99.90
3921;DHT22;1975;49.356;6.816;2022-10-16T04:49:23;15.60;99.90
3921;DHT22;1975;49.356;6.816;2022-10-16T04:51:49;15.60;99.90
3921;DHT22;1975;49.356;6.816;2022-10-16T04:54:14;15.60;99.90
3921;DHT22;1975;49.356;6.816;2022-10-16T04:56:39;15.50;99.90
3921;DHT22;1975;49.356;6.816;2022-10-16T04:59:12;15.60;99.90
3921;DHT22;1975;49.356;6.816;2022-10-16T05:01:37;15.60;99.90
3921;DHT22;1975;49.356;6.816;2022-10-16T05:04:03;15.60;99.90
3921;DHT22;1975;49.356;6.816;2022-10-16T05:06:28;15.60;99.90
3921;DHT22;1975;49.356;6.816;2022-10-16T05:08:53;15.50;99.90
3921;DHT22;1975;49.356;6.816;2022-10-16T05:11:19;15.60;99.90
3921;DHT22;1975;49.356;6.816;2022-10-16T05:13:44;15.50;99.90
3921;DHT22;1975;49.356;6.816;2022-10-16T05:16:10;15.60;99.90
3921;DHT22;1975;49.356;6.816;2022-10-16T05:18:35;15.60;99.90
3921;DHT22;1975;49.356;6.816;2022-10-16T05:21:01;15.60;99.90
3921;DHT22;1975;49.356;6.816;2022-10-16T05:23:26;15.60;99.90
3921;DHT22;1975;49.356;6.816;2022-10-16T05:25:53;15.60;99.90
3921;DHT22;1975;49.356;6.816;2022-10-16T05:28:19;15.50;99.90
3921;DHT22;1975;49.356;6.816;2022-10-16T05:30:45;15.50;99.90
3921;DHT22;1975;49.356;6.816;2022-10-16T05:33:10;15.50;99.90
3921;DHT22;1975;49.356;6.816;2022-10-16T05:35:35;15.50;99.90
3921;DHT22;1975;49.356;6.816;2022-10-16T05:38:01;15.50;99.90
3921;DHT22;1975;49.356;6.816;2022-10-16T05:40:26;15.50;99.90
3921;DHT22;1975;49.356;6.816;2022-10-16T05:42:54;15.50;99.90
3921;DHT22;1975;49.356;6.816;2022-10-16T05:45:19;15.50;99.90
3921;DHT22;1975;49.356;6.816;2022-10-16T05:47:45;15.50;99.90
3921;DHT22;1975;49.356;6.816;2022-10-16T05:50:10;15.50;99.90
3921;DHT22;1975;49.356;6.816;2022-10-16T05:52:36;15.50;99.90
3921;DHT22;1975;49.356;6.816;2022-10-16T05:55:01;15.50;99.90
3921;DHT22;1975;49.356;6.816;2022-10-16T05:57:27;15.50;99.90
3921;DHT22;1975;49.356;6.816;2022-10-16T05:59:52;15.50;99.90
3921;DHT22;1975;49.356;6.816;2022-10-16T06:02:18;15.50;99.90
3921;DHT22;1975;49.356;6.816;2022-10-16T06:04:43;15.50;99.90
3921;DHT22;1975;49.356;6.816;2022-10-16T06:07:09;15.50;99.90
3921;DHT22;1975;49.356;6.816;2022-10-16T06:09:34;15.50;99.90
3921;DHT22;1975;49.356;6.816;2022-10-16T06:12:00;15.50;99.90
3921;DHT22;1975;49.356;6.816;2022-10-16T06:14:25;15.50;99.90
3921;DHT22;1975;49.356;6.816;2022-10-16T06:16:51;15.50;99.90
3921;DHT22;1975;49.356;6.816;2022-10-16T06:19:16;15.50;99.90
3921;DHT22;1975;49.356;6.816;2022-10-16T06:21:42;15.50;99.90
3921;DHT22;1975;49.356;6.816;2022-10-16T06:24:08;15.50;99.90
3921;DHT22;1975;49.356;6.816;2022-10-16T06:26:34;15.50;99.90
3921;DHT22;1975;49.356;6.816;2022-10-16T06:29:00;15.50;99.90
3921;DHT22;1975;49.356;6.816;2022-10-16T06:31:25;15.50;99.90
3921;DHT22;1975;49.356;6.816;2022-10-16T06:33:53;15.50;99.90
3921;DHT22;1975;49.356;6.816;2022-10-16T06:36:18;15.50;99.90
3921;DHT22;1975;49.356;6.816;2022-10-16T06:38:44;15.50;99.90
3921;DHT22;1975;49.356;6.816;2022-10-16T06:41:13;15.50;99.90
3921;DHT22;1975;49.356;6.816;2022-10-16T06:43:39;15.50;99.90
3921;DHT22;1975;49.356;6.816;2022-10-16T06:46:05;15.50;99.90
3921;DHT22;1975;49.356;6.816;2022-10-16T06:48:33;15.50;99.90
3921;DHT22;1975;49.356;6.816;2022-10-16T06:50:59;15.50;99.90
3921;DHT22;1975;49.356;6.816;2022-10-16T06:53:25;15.50;99.90
3921;DHT22;1975;49.356;6.816;2022-10-16T06:55:51;15.50;99.90
3921;DHT22;1975;49.356;6.816;2022-10-16T06:58:16;15.50;99.90
3921;DHT22;1975;49.356;6.816;2022-10-16T07:00:42;15.50;99.90
3921;DHT22;1975;49.356;6.816;2022-10-16T07:03:07;15.50;99.90
3921;DHT22;1975;49.356;6.816;2022-10-16T07:05:37;15.50;99.90
3921;DHT22;1975;49.356;6.816;2022-10-16T07:08:02;15.50;99.90
3921;DHT22;1975;49.356;6.816;2022-10-16T07:10:30;15.50;99.90
3921;DHT22;1975;49.356;6.816;2022-10-16T07:12:56;15.50;99.90
3921;DHT22;1975;49.356;6.816;2022-10-16T07:15:22;15.50;99.90
3921;DHT22;1975;49.356;6.816;2022-10-16T07:17:47;15.50;99.90
3921;DHT22;1975;49.356;6.816;2022-10-16T07:20:12;15.50;99.90
3921;DHT22;1975;49.356;6.816;2022-10-16T07:22:38;15.50;99.90
3921;DHT22;1975;49.356;6.816;2022-10-16T07:25:04;15.50;99.90
3921;DHT22;1975;49.356;6.816;2022-10-16T07:27:29;15.50;99.90
3921;DHT22;1975;49.356;6.816;2022-10-16T07:29:55;15.50;99.90
3921;DHT22;1975;49.356;6.816;2022-10-16T07:32:20;15.50;99.90
3921;DHT22;1975;49.356;6.816;2022-10-16T07:34:46;15.50;99.90
3921;DHT22;1975;49.356;6.816;2022-10-16T07:37:11;15.50;99.90
3921;DHT22;1975;49.356;6.816;2022-10-16T07:39:37;15.40;99.90
3921;DHT22;1975;49.356;6.816;2022-10-16T07:42:02;15.50;99.90
3921;DHT22;1975;49.356;6.816;2022-10-16T07:44:28;15.50;99.90
3921;DHT22;1975;49.356;6.816;2022-10-16T07:46:53;15.50;99.90
3921;DHT22;1975;49.356;6.816;2022-10-16T07:49:19;15.50;99.90
3921;DHT22;1975;49.356;6.816;2022-10-16T07:51:44;15.50;99.90
3921;DHT22;1975;49.356;6.816;2022-10-16T07:54:10;15.50;99.90
3921;DHT22;1975;49.356;6.816;2022-10-16T07:56:35;15.50;99.90
3921;DHT22;1975;49.356;6.816;2022-10-16T07:59:00;15.50;99.90
3921;DHT22;1975;49.356;6.816;2022-10-16T08:01:26;15.50;99.90
3921;DHT22;1975;49.356;6.816;2022-10-16T08:03:51;15.50;99.90
3921;DHT22;1975;49.356;6.816;2022-10-16T08:06:18;15.50;99.90
3921;DHT22;1975;49.356;6.816;2022-10-16T08:08:43;15.50;99.90
3921;DHT22;1975;49.356;6.816;2022-10-16T08:11:09;15.50;99.90
3921;DHT22;1975;49.356;6.816;2022-10-16T08:13:34;15.50;99.90
3921;DHT22;1975;49.356;6.816;2022-10-16T08:16:00;15.50;99.90
3921;DHT22;1975;49.356;6.816;2022-10-16T08:18:26;15.50;99.90
3921;DHT22;1975;49.356;6.816;2022-10-16T08:20:55;15.50;99.90
3921;DHT22;1975;49.356;6.816;2022-10-16T08:23:21;15.50;99.90
3921;DHT22;1975;49.356;6.816;2022-10-16T08:25:46;15.50;99.90
3921;DHT22;1975;49.356;6.816;2022-10-16T08:28:12;15.50;99.90
3921;DHT22;1975;49.356;6.816;2022-10-16T08:30:37;15.50;99.90
3921;DHT22;1975;49.356;6.816;2022-10-16T08:33:03;15.50;99.90
3921;DHT22;1975;49.356;6.816;2022-10-16T08:35:29;15.60;99.90
3921;DHT22;1975;49.356;6.816;2022-10-16T08:37:54;15.60;99.90
3921;DHT22;1975;49.356;6.816;2022-10-16T08:40:21;15.60;99.90
3921;DHT22;1975;49.356;6.816;2022-10-16T08:48:05;15.60;99.90
3921;DHT22;1975;49.356;6.816;2022-10-16T08:50:35;15.60;99.90
3921;DHT22;1975;49.356;6.816;2022-10-16T08:53:01;15.60;99.90
3921;DHT22;1975;49.356;6.816;2022-10-16T08:55:30;15.60;99.90
3921;DHT22;1975;49.356;6.816;2022-10-16T08:57:58;15.60;99.90
3921;DHT22;1975;49.356;6.816;2022-10-16T09:00:23;15.60;99.90
3921;DHT22;1975;49.356;6.816;2022-10-16T09:03:32;15.60;99.90
3921;DHT22;1975;49.356;6.816;2022-10-16T09:06:12;15.60;99.90
3921;DHT22;1975;49.356;6.816;2022-10-16T09:08:34;15.70;99.90
3921;DHT22;1975;49.356;6.816;2022-10-16T09:13:27;15.70;99.90
3921;DHT22;1975;49.356;6.816;2022-10-16T09:18:41;15.70;99.90
3921;DHT22;1975;49.356;6.816;2022-10-16T09:21:24;15.70;99.90
3921;DHT22;1975;49.356;6.816;2022-10-16T09:23:50;15.70;99.90
3921;DHT22;1975;49.356;6.816;2022-10-16T09:26:16;15.70;99.90
3921;DHT22;1975;49.356;6.816;2022-10-16T09:28:43;15.70;99.90
3921;DHT22;1975;49.356;6.816;2022-10-16T09:31:18;15.70;99.90
3921;DHT22;1975;49.356;6.816;2022-10-16T09:33:44;15.70;99.90
3921;DHT22;1975;49.356;6.816;2022-10-16T09:36:10;15.70;99.90
3921;DHT22;1975;49.356;6.816;2022-10-16T09:38:36;15.80;99.90
3921;DHT22;1975;49.356;6.816;2022-10-16T09:41:03;15.80;99.90
3921;DHT22;1975;49.356;6.816;2022-10-16T09:46:06;15.80;99.90
3921;DHT22;1975;49.356;6.816;2022-10-16T09:48:42;15.80;99.90
3921;DHT22;1975;49.356;6.816;2022-10-16T09:56:32;15.80;99.90
3921;DHT22;1975;49.356;6.816;2022-10-16T09:59:00;15.90;99.90
3921;DHT22;1975;49.356;6.816;2022-10-16T10:01:30;15.90;99.90
3921;DHT22;1975;49.356;6.816;2022-10-16T10:03:57;15.90;99.90
3921;DHT22;1975;49.356;6.816;2022-10-16T10:06:28;15.80;99.90
3921;DHT22;1975;49.356;6.816;2022-10-16T10:08:55;15.90;99.90
3921;DHT22;1975;49.356;6.816;2022-10-16T10:14:15;15.90;99.90
3921;DHT22;1975;49.356;6.816;2022-10-16T10:16:41;15.90;99.90
3921;DHT22;1975;49.356;6.816;2022-10-16T10:19:14;15.90;99.90
3921;DHT22;1975;49.356;6.816;2022-10-16T10:21:40;15.90;99.90
3921;DHT22;1975;49.356;6.816;2022-10-16T10:24:09;15.90;99.90
3921;DHT22;1975;49.356;6.816;2022-10-16T10:26:34;16.00;99.90
3921;DHT22;1975;49.356;6.816;2022-10-16T10:33:59;16.00;99.90
3921;DHT22;1975;49.356;6.816;2022-10-16T10:36:36;16.00;99.90
3921;DHT22;1975;49.356;6.816;2022-10-16T10:39:11;15.90;99.90
3921;DHT22;1975;49.356;6.816;2022-10-16T10:52:18;16.00;99.90
3921;DHT22;1975;49.356;6.816;2022-10-16T10:54:49;16.00;99.90
3921;DHT22;1975;49.356;6.816;2022-10-16T11:07:36;16.00;99.90
3921;DHT22;1975;49.356;6.816;2022-10-16T11:10:12;16.00;99.90
3921;DHT22;1975;49.356;6.816;2022-10-16T11:12:42;16.10;99.90
3921;DHT22;1975;49.356;6.816;2022-10-16T11:15:20;16.00;99.90
3921;DHT22;1975;49.356;6.816;2022-10-16T11:17:51;16.10;99.90
3921;DHT22;1975;49.356;6.816;2022-10-16T11:20:21;16.10;99.90
3921;DHT22;1975;49.356;6.816;2022-10-16T11:22:50;16.10;99.90
3921;DHT22;1975;49.356;6.816;2022-10-16T11:25:21;16.10;99.90
3921;DHT22;1975;49.356;6.816;2022-10-16T11:27:50;16.10;99.90
3921;DHT22;1975;49.356;6.816;2022-10-16T11:30:21;16.10;99.90
3921;DHT22;1975;49.356;6.816;2022-10-16T11:32:56;16.10;99.90
3921;DHT22;1975;49.356;6.816;2022-10-16T11:38:55;16.10;99.90
3921;DHT22;1975;49.356;6.816;2022-10-16T11:41:02;16.10;99.90
3921;DHT22;1975;49.356;6.816;2022-10-16T11:43:29;16.10;99.90
3921;DHT22;1975;49.356;6.816;2022-10-16T11:45:58;16.10;99.90
3921;DHT22;1975;49.356;6.816;2022-10-16T11:48:38;16.10;99.90
3921;DHT22;1975;49.356;6.816;2022-10-16T11:53:51;16.10;99.90
3921;DHT22;1975;49.356;6.816;2022-10-16T11:56:19;16.10;99.90
3921;DHT22;1975;49.356;6.816;2022-10-16T12:01:30;16.10;99.90
3921;DHT22;1975;49.356;6.816;2022-10-16T12:09:15;16.10;99.90
3921;DHT22;1975;49.356;6.816;2022-10-16T12:11:43;16.10;99.90
3921;DHT22;1975;49.356;6.816;2022-10-16T12:16:53;16.10;99.90
3921;DHT22;1975;49.356;6.816;2022-10-16T12:19:20;16.20;99.90
3921;DHT22;1975;49.356;6.816;2022-10-16T12:21:46;16.10;99.90
3921;DHT22;1975;49.356;6.816;2022-10-16T12:29:46;16.20;99.90
3921;DHT22;1975;49.356;6.816;2022-10-16T12:32:45;16.10;99.90
3921;DHT22;1975;49.356;6.816;2022-10-16T12:35:17;16.20;99.90
3921;DHT22;1975;49.356;6.816;2022-10-16T12:37:43;16.20;99.90
3921;DHT22;1975;49.356;6.816;2022-10-16T12:40:12;16.20;99.90
3921;DHT22;1975;49.356;6.816;2022-10-16T12:42:39;16.20;99.90
3921;DHT22;1975;49.356;6.816;2022-10-16T12:47:49;16.30;99.90
3921;DHT22;1975;49.356;6.816;2022-10-16T12:50:26;16.30;99.90
3921;DHT22;1975;49.356;6.816;2022-10-16T12:52:52;16.30;99.90
3921;DHT22;1975;49.356;6.816;2022-10-16T12:55:18;16.40;99.90
3921;DHT22;1975;49.356;6.816;2022-10-16T13:21:33;16.40;99.90
3921;DHT22;1975;49.356;6.816;2022-10-16T13:24:06;16.40;99.90
3921;DHT22;1975;49.356;6.816;2022-10-16T13:29:00;16.40;99.90
3921;DHT22;1975;49.356;6.816;2022-10-16T13:31:26;16.40;99.90
3921;DHT22;1975;49.356;6.816;2022-10-16T13:33:54;16.40;99.90
3921;DHT22;1975;49.356;6.816;2022-10-16T13:36:24;16.40;99.90
3921;DHT22;1975;49.356;6.816;2022-10-16T13:41:34;16.40;99.90
3921;DHT22;1975;49.356;6.816;2022-10-16T13:44:00;16.40;99.90
3921;DHT22;1975;49.356;6.816;2022-10-16T13:46:25;16.40;99.90
3921;DHT22;1975;49.356;6.816;2022-10-16T13:49:02;16.40;99.90
3921;DHT22;1975;49.356;6.816;2022-10-16T13:51:28;16.40;99.90
3921;DHT22;1975;49.356;6.816;2022-10-16T13:53:55;16.40;99.90
3921;DHT22;1975;49.356;6.816;2022-10-16T13:56:21;16.40;99.90
3921;DHT22;1975;49.356;6.816;2022-10-16T13:59:48;16.40;99.90
3921;DHT22;1975;49.356;6.816;2022-10-16T14:01:43;16.40;99.90
3921;DHT22;1975;49.356;6.816;2022-10-16T14:04:10;16.40;99.90
3921;DHT22;1975;49.356;6.816;2022-10-16T14:06:36;16.40;99.90
3921;DHT22;1975;49.356;6.816;2022-10-16T14:09:06;16.40;99.90
3921;DHT22;1975;49.356;6.816;2022-10-16T14:11:33;16.40;99.90
3921;DHT22;1975;49.356;6.816;2022-10-16T14:13:59;16.50;99.90
3921;DHT22;1975;49.356;6.816;2022-10-16T14:16:27;16.50;99.90
3921;DHT22;1975;49.356;6.816;2022-10-16T14:19:01;16.50;99.90
3921;DHT22;1975;49.356;6.816;2022-10-16T14:21:27;16.50;99.90
3921;DHT22;1975;49.356;6.816;2022-10-16T14:23:53;16.50;99.90
3921;DHT22;1975;49.356;6.816;2022-10-16T14:26:20;16.50;99.90
3921;DHT22;1975;49.356;6.816;2022-10-16T14:28:46;16.50;99.90
3921;DHT22;1975;49.356;6.816;2022-10-16T14:31:32;16.50;99.90
3921;DHT22;1975;49.356;6.816;2022-10-16T14:33:58;16.50;99.90
3921;DHT22;1975;49.356;6.816;2022-10-16T14:36:24;16.50;99.90
3921;DHT22;1975;49.356;6.816;2022-10-16T14:39:06;16.50;99.90
3921;DHT22;1975;49.356;6.816;2022-10-16T14:41:43;16.50;99.90
3921;DHT22;1975;49.356;6.816;2022-10-16T14:44:09;16.50;99.90
3921;DHT22;1975;49.356;6.816;2022-10-16T14:46:36;16.50;99.90
3921;DHT22;1975;49.356;6.816;2022-10-16T14:49:03;16.50;99.90
3921;DHT22;1975;49.356;6.816;2022-10-16T14:51:29;16.50;99.90
3921;DHT22;1975;49.356;6.816;2022-10-16T14:53:55;16.50;99.90
3921;DHT22;1975;49.356;6.816;2022-10-16T14:56:21;16.60;99.90
3921;DHT22;1975;49.356;6.816;2022-10-16T14:58:48;16.60;99.90
3921;DHT22;1975;49.356;6.816;2022-10-16T15:01:13;16.60;99.90
3921;DHT22;1975;49.356;6.816;2022-10-16T15:03:39;16.60;99.90
3921;DHT22;1975;49.356;6.816;2022-10-16T15:06:09;16.60;99.90
3921;DHT22;1975;49.356;6.816;2022-10-16T15:08:35;16.60;99.90
3921;DHT22;1975;49.356;6.816;2022-10-16T15:11:01;16.60;99.90
3921;DHT22;1975;49.356;6.816;2022-10-16T15:13:26;16.60;99.90
3921;DHT22;1975;49.356;6.816;2022-10-16T15:15:52;16.60;99.90
3921;DHT22;1975;49.356;6.816;2022-10-16T15:18:18;16.60;99.90
3921;DHT22;1975;49.356;6.816;2022-10-16T15:20:47;16.60;99.90
3921;DHT22;1975;49.356;6.816;2022-10-16T15:23:13;16.60;99.90
3921;DHT22;1975;49.356;6.816;2022-10-16T15:25:43;16.60;99.90
3921;DHT22;1975;49.356;6.816;2022-10-16T15:28:09;16.60;99.90
3921;DHT22;1975;49.356;6.816;2022-10-16T15:30:35;16.60;99.90
3921;DHT22;1975;49.356;6.816;2022-10-16T15:33:01;16.60;99.90
3921;DHT22;1975;49.356;6.816;2022-10-16T15:35:27;16.70;99.90
3921;DHT22;1975;49.356;6.816;2022-10-16T15:37:52;16.70;99.90
3921;DHT22;1975;49.356;6.816;2022-10-16T15:40:19;16.70;99.90
3921;DHT22;1975;49.356;6.816;2022-10-16T15:42:44;16.70;99.90
3921;DHT22;1975;49.356;6.816;2022-10-16T15:45:10;16.70;99.90
3921;DHT22;1975;49.356;6.816;2022-10-16T15:47:36;16.70;99.90
3921;DHT22;1975;49.356;6.816;2022-10-16T15:50:02;16.80;99.90
3921;DHT22;1975;49.356;6.816;2022-10-16T15:52:27;16.80;99.90
3921;DHT22;1975;49.356;6.816;2022-10-16T15:54:54;16.80;99.90
3921;DHT22;1975;49.356;6.816;2022-10-16T15:57:19;16.80;99.90
3921;DHT22;1975;49.356;6.816;2022-10-16T15:59:45;16.80;99.90
3921;DHT22;1975;49.356;6.816;2022-10-16T16:02:10;16.80;99.90
3921;DHT22;1975;49.356;6.816;2022-10-16T16:04:35;16.80;99.90
3921;DHT22;1975;49.356;6.816;2022-10-16T16:07:01;16.80;99.90
3921;DHT22;1975;49.356;6.816;2022-10-16T16:09:29;17.10;99.90
3921;DHT22;1975;49.356;6.816;2022-10-16T16:11:54;16.90;99.90
3921;DHT22;1975;49.356;6.816;2022-10-16T16:14:20;16.90;99.90
3921;DHT22;1975;49.356;6.816;2022-10-16T16:16:45;16.90;99.90
3921;DHT22;1975;49.356;6.816;2022-10-16T16:19:11;16.80;99.90
3921;DHT22;1975;49.356;6.816;2022-10-16T16:21:36;16.90;99.90
3921;DHT22;1975;49.356;6.816;2022-10-16T16:24:02;16.90;99.90
3921;DHT22;1975;49.356;6.816;2022-10-16T16:26:33;16.90;99.90
3921;DHT22;1975;49.356;6.816;2022-10-16T16:29:02;17.00;99.90
3921;DHT22;1975;49.356;6.816;2022-10-16T16:31:28;16.90;99.90
3921;DHT22;1975;49.356;6.816;2022-10-16T16:33:54;16.90;99.90
3921;DHT22;1975;49.356;6.816;2022-10-16T16:36:19;16.90;99.90
3921;DHT22;1975;49.356;6.816;2022-10-16T16:38:45;16.90;99.90
3921;DHT22;1975;49.356;6.816;2022-10-16T16:41:18;16.90;99.90
3921;DHT22;1975;49.356;6.816;2022-10-16T16:43:44;16.90;99.90
3921;DHT22;1975;49.356;6.816;2022-10-16T16:46:10;16.90;99.90
3921;DHT22;1975;49.356;6.816;2022-10-16T16:48:36;16.90;99.90
3921;DHT22;1975;49.356;6.816;2022-10-16T16:51:03;16.90;99.90
3921;DHT22;1975;49.356;6.816;2022-10-16T16:53:28;16.90;99.90
3921;DHT22;1975;49.356;6.816;2022-10-16T16:55:54;16.90;99.90
3921;DHT22;1975;49.356;6.816;2022-10-16T16:58:19;16.90;99.90
3921;DHT22;1975;49.356;6.816;2022-10-16T17:00:45;16.90;99.90
3921;DHT22;1975;49.356;6.816;2022-10-16T17:03:11;16.90;99.90
3921;DHT22;1975;49.356;6.816;2022-10-16T17:05:36;16.80;99.90
3921;DHT22;1975;49.356;6.816;2022-10-16T17:08:02;16.80;99.90
3921;DHT22;1975;49.356;6.816;2022-10-16T17:10:27;16.80;99.90
3921;DHT22;1975;49.356;6.816;2022-10-16T17:12:53;16.80;99.90
3921;DHT22;1975;49.356;6.816;2022-10-16T17:15:18;16.80;99.90
3921;DHT22;1975;49.356;6.816;2022-10-16T17:17:44;16.80;99.90
3921;DHT22;1975;49.356;6.816;2022-10-16T17:20:09;16.80;99.90
3921;DHT22;1975;49.356;6.816;2022-10-16T17:22:35;16.80;99.90
3921;DHT22;1975;49.356;6.816;2022-10-16T17:25:01;16.80;99.90
3921;DHT22;1975;49.356;6.816;2022-10-16T17:27:28;16.80;99.90
3921;DHT22;1975;49.356;6.816;2022-10-16T17:29:54;16.70;99.90
3921;DHT22;1975;49.356;6.816;2022-10-16T17:32:20;16.70;99.90
3921;DHT22;1975;49.356;6.816;2022-10-16T17:34:46;16.80;99.90
3921;DHT22;1975;49.356;6.816;2022-10-16T17:37:11;16.70;99.90
3921;DHT22;1975;49.356;6.816;2022-10-16T17:39:37;16.70;99.90
3921;DHT22;1975;49.356;6.816;2022-10-16T17:42:02;16.70;99.90
3921;DHT22;1975;49.356;6.816;2022-10-16T17:44:28;16.70;99.90
3921;DHT22;1975;49.356;6.816;2022-10-16T17:46:53;16.70;99.90
3921;DHT22;1975;49.356;6.816;2022-10-16T17:49:19;16.70;99.90
3921;DHT22;1975;49.356;6.816;2022-10-16T17:51:45;16.70;99.90
3921;DHT22;1975;49.356;6.816;2022-10-16T17:54:13;16.60;99.90
3921;DHT22;1975;49.356;6.816;2022-10-16T17:56:39;16.60;99.90